createdAt,value
2023-02-11T00:02:04.833Z,6.21
2023-02-11T00:04:37.476Z,6.20
2023-02-11T00:07:11.606Z,6.18
2023-02-11T00:09:44.453Z,6.19
2023-02-11T00:12:19.467Z,6.21
2023-02-11T00:14:54.794Z,6.22
2023-02-11T00:17:27.661Z,6.25
2023-02-11T00:20:00.516Z,6.24
2023-02-11T00:22:34.718Z,6.23
2023-02-11T00:25:07.877Z,6.22
2023-02-11T00:27:40.999Z,6.23
2023-02-11T00:30:14.294Z,6.24
2023-02-11T00:32:47.086Z,6.27
2023-02-11T00:35:19.845Z,6.26
2023-02-11T00:37:55.981Z,6.20
2023-02-11T00:40:29.160Z,6.29
2023-02-11T00:43:02.160Z,6.27
2023-02-11T00:45:34.961Z,6.26
2023-02-11T00:48:08.071Z,6.29
2023-02-11T00:50:40.894Z,6.28
2023-02-11T00:53:15.110Z,6.28
2023-02-11T00:55:48.217Z,6.28
2023-02-11T00:58:22.451Z,6.29
2023-02-11T01:00:55.340Z,6.29
2023-02-11T01:03:28.125Z,6.21
2023-02-11T01:06:01.400Z,6.30
2023-02-11T01:08:35.544Z,6.22
2023-02-11T01:11:13.504Z,6.28
2023-02-11T01:13:48.037Z,6.29
2023-02-11T01:16:22.451Z,6.30
2023-02-11T01:18:55.846Z,6.31
2023-02-11T01:21:28.806Z,6.26
2023-02-11T01:24:02.951Z,6.29
2023-02-11T01:26:35.795Z,6.30
2023-02-11T01:29:09.281Z,6.31
2023-02-11T01:31:42.147Z,6.27
2023-02-11T01:34:15.478Z,6.28
2023-02-11T01:36:48.272Z,6.21
2023-02-11T01:39:22.351Z,6.29
2023-02-11T01:41:56.058Z,6.29
2023-02-11T01:44:32.934Z,6.25
2023-02-11T01:47:06.511Z,6.18
2023-02-11T01:49:43.271Z,6.26
2023-02-11T01:52:22.110Z,6.26
2023-02-11T01:55:17.828Z,6.24
2023-02-11T01:57:56.275Z,6.16
2023-02-11T02:00:35.546Z,6.20
2023-02-11T02:06:24.014Z,6.22
2023-02-11T02:09:02.187Z,6.22
2023-02-11T02:11:37.406Z,6.13
2023-02-11T02:14:10.183Z,6.19
2023-02-11T02:16:43.191Z,6.19
2023-02-11T02:19:48.652Z,6.14
2023-02-11T02:22:59.141Z,6.16
2023-02-11T02:25:59.739Z,6.08
2023-02-11T02:28:57.974Z,6.15
2023-02-11T02:31:51.350Z,6.11
2023-02-11T02:34:31.871Z,6.15
2023-02-11T02:37:11.306Z,6.07
2023-02-11T02:39:47.481Z,6.09
2023-02-11T02:42:21.315Z,6.12
2023-02-11T02:44:54.413Z,6.10
2023-02-11T02:47:27.466Z,6.07
2023-02-11T02:50:01.880Z,6.05
2023-02-11T02:52:40.243Z,6.11
2023-02-11T02:55:34.474Z,6.11
2023-02-11T02:58:31.205Z,6.12
2023-02-11T03:01:15.084Z,6.09
2023-02-11T03:03:53.092Z,6.01
2023-02-11T03:06:34.635Z,6.03
2023-02-11T03:09:11.863Z,6.00
2023-02-11T03:11:44.674Z,6.05
2023-02-11T03:14:20.284Z,6.03
2023-02-11T03:16:57.007Z,6.03
2023-02-11T03:19:35.402Z,6.01
2023-02-11T03:22:15.501Z,6.00
2023-02-11T03:24:49.353Z,5.91
2023-02-11T03:27:28.354Z,6.01
2023-02-11T03:30:11.996Z,6.01
2023-02-11T03:32:52.295Z,5.97
2023-02-11T03:35:32.857Z,5.95
2023-02-11T03:38:10.213Z,5.90
2023-02-11T03:40:45.544Z,5.75
2023-02-11T03:43:22.829Z,5.94
2023-02-11T03:45:57.397Z,5.89
2023-02-11T03:48:34.184Z,5.86
2023-02-11T03:51:10.091Z,5.92
2023-02-11T03:53:47.723Z,5.88
2023-02-11T03:56:24.541Z,5.87
2023-02-11T03:58:57.806Z,5.94
2023-02-11T04:01:30.726Z,5.90
2023-02-11T04:04:04.956Z,5.94
2023-02-11T04:06:38.506Z,5.81
2023-02-11T04:09:13.478Z,5.91
2023-02-11T04:11:46.003Z,5.93
2023-02-11T04:14:18.781Z,5.73
2023-02-11T04:16:51.581Z,5.87
2023-02-11T04:19:24.354Z,5.93
2023-02-11T04:21:57.129Z,5.92
2023-02-11T04:24:31.425Z,5.81
2023-02-11T04:27:04.401Z,5.92
2023-02-11T04:29:37.714Z,5.92
2023-02-11T04:32:11.684Z,5.78
2023-02-11T04:34:44.725Z,5.91
2023-02-11T04:37:17.539Z,5.90
2023-02-11T04:39:51.691Z,5.89
2023-02-11T04:42:25.067Z,5.87
2023-02-11T04:44:58.026Z,5.82
2023-02-11T04:47:30.889Z,5.88
2023-02-11T04:50:03.763Z,5.88
2023-02-11T04:52:36.473Z,5.87
2023-02-11T04:55:10.741Z,5.88
2023-02-11T04:57:43.602Z,5.72
2023-02-11T05:00:17.416Z,5.85
2023-02-11T05:02:50.260Z,5.77
2023-02-11T05:05:23.039Z,5.81
2023-02-11T05:07:55.835Z,5.82
2023-02-11T05:10:29.933Z,5.83
2023-02-11T05:13:02.991Z,5.81
2023-02-11T05:15:36.050Z,5.81
2023-02-11T05:18:08.844Z,5.81
2023-02-11T05:20:42.039Z,5.80
2023-02-11T05:23:14.849Z,5.77
2023-02-11T05:25:49.242Z,5.79
2023-02-11T05:28:22.156Z,5.78
2023-02-11T05:30:55.236Z,5.61
2023-02-11T05:33:28.570Z,5.75
2023-02-11T05:36:02.183Z,5.75
2023-02-11T05:38:35.481Z,5.76
2023-02-11T05:41:09.889Z,5.76
2023-02-11T05:43:42.641Z,5.68
2023-02-11T05:46:15.451Z,5.72
2023-02-11T05:48:48.338Z,5.70
2023-02-11T05:51:21.130Z,5.71
2023-02-11T05:53:54.196Z,5.56
2023-02-11T05:56:28.396Z,5.71
2023-02-11T05:59:01.653Z,5.60
2023-02-11T06:01:34.483Z,5.70
2023-02-11T06:04:07.382Z,5.59
2023-02-11T06:06:40.198Z,5.68
2023-02-11T06:09:12.943Z,5.72
2023-02-11T06:11:47.368Z,5.62
2023-02-11T06:14:20.401Z,5.63
2023-02-11T06:16:53.219Z,5.68
2023-02-11T06:19:26.081Z,5.68
2023-02-11T06:21:58.884Z,5.59
2023-02-11T06:24:51.405Z,5.56
2023-02-11T06:27:26.671Z,5.60
2023-02-11T06:29:59.696Z,5.68
2023-02-11T06:32:44.455Z,5.59
2023-02-11T06:35:18.151Z,5.68
2023-02-11T06:37:53.713Z,5.70
2023-02-11T06:40:26.469Z,5.70
2023-02-11T06:43:00.646Z,5.67
2023-02-11T06:45:33.637Z,5.69
2023-02-11T06:48:06.910Z,5.68
2023-02-11T06:50:40.086Z,5.65
2023-02-11T06:53:12.965Z,5.65
2023-02-11T06:55:45.804Z,5.62
2023-02-11T06:58:19.992Z,5.68
2023-02-11T07:00:53.651Z,5.69
2023-02-11T07:03:26.796Z,5.66
2023-02-11T07:05:59.596Z,5.69
2023-02-11T07:08:32.449Z,5.67
2023-02-11T07:11:10.529Z,5.69
2023-02-11T07:13:45.245Z,5.69
2023-02-11T07:16:19.036Z,5.71
2023-02-11T07:18:52.148Z,5.70
2023-02-11T07:21:25.341Z,5.68
2023-02-11T07:23:58.234Z,5.71
2023-02-11T07:26:31.016Z,5.75
2023-02-11T07:29:05.578Z,5.74
2023-02-11T07:31:38.424Z,5.76
2023-02-11T07:34:12.064Z,5.76
2023-02-11T07:36:45.047Z,5.78
2023-02-11T07:39:17.907Z,5.77
2023-02-11T07:41:50.705Z,5.81
2023-02-11T07:44:25.208Z,5.80
2023-02-11T07:46:58.197Z,5.81
2023-02-11T07:49:31.001Z,5.82
2023-02-11T07:52:03.809Z,5.81
2023-02-11T07:54:36.624Z,5.75
2023-02-11T07:57:09.510Z,5.85
2023-02-11T07:59:43.993Z,5.87
2023-02-11T08:02:16.965Z,5.87
2023-02-11T08:04:50.655Z,5.77
2023-02-11T08:07:23.491Z,5.80
2023-02-11T08:09:56.724Z,5.89
2023-02-11T08:12:29.512Z,5.98
2023-02-11T08:15:03.940Z,5.99
2023-02-11T08:17:36.778Z,5.90
2023-02-11T08:20:10.348Z,6.01
2023-02-11T08:22:43.211Z,6.00
2023-02-11T08:25:16.180Z,6.01
2023-02-11T08:27:48.931Z,6.08
2023-02-11T08:30:25.052Z,6.10
2023-02-11T08:32:59.004Z,6.06
2023-02-11T08:35:32.973Z,6.16
2023-02-11T08:38:05.714Z,6.16
2023-02-11T08:40:39.894Z,6.20
2023-02-11T08:43:12.633Z,6.24
2023-02-11T08:45:47.081Z,6.28
2023-02-11T08:48:19.890Z,6.38
2023-02-11T08:50:52.694Z,6.39
2023-02-11T08:53:26.197Z,6.39
2023-02-11T08:55:59.284Z,6.35
2023-02-11T08:58:32.054Z,6.49
2023-02-11T09:01:11.452Z,6.51
2023-02-11T09:03:44.372Z,6.55
2023-02-11T09:06:18.575Z,6.66
2023-02-11T09:08:53.903Z,6.70
2023-02-11T09:11:29.446Z,6.68
2023-02-11T09:14:03.235Z,6.77
2023-02-11T09:16:37.618Z,6.57
2023-02-11T09:19:10.733Z,6.65
2023-02-11T09:21:43.708Z,6.77
2023-02-11T09:24:16.676Z,6.76
2023-02-11T09:26:50.042Z,6.70
2023-02-11T09:29:22.852Z,6.72
2023-02-11T09:31:59.122Z,6.72
2023-02-11T09:34:32.045Z,6.74
2023-02-11T09:37:05.117Z,6.69
2023-02-11T09:39:37.935Z,6.75
2023-02-11T09:42:40.695Z,6.84
2023-02-11T09:45:18.496Z,6.87
2023-02-11T09:47:56.895Z,6.92
2023-02-11T09:50:33.510Z,7.01
2023-02-11T09:53:12.364Z,6.93
2023-02-11T09:55:48.895Z,6.81
2023-02-11T09:58:26.740Z,6.92
2023-02-11T10:01:07.838Z,7.06
2023-02-11T10:03:55.659Z,7.10
2023-02-11T10:06:40.150Z,7.05
2023-02-11T10:09:29.738Z,6.96
2023-02-11T10:12:17.097Z,7.16
2023-02-11T10:15:02.404Z,7.14
2023-02-11T10:17:39.486Z,7.19
2023-02-11T10:20:26.353Z,7.14
2023-02-11T10:23:02.237Z,7.25
2023-02-11T10:25:38.113Z,7.29
2023-02-11T10:28:15.297Z,7.33
2023-02-11T10:30:56.759Z,7.27
2023-02-11T10:33:35.531Z,7.33
2023-02-11T10:36:12.100Z,7.31
2023-02-11T10:38:45.425Z,7.38
2023-02-11T10:41:23.622Z,7.33
2023-02-11T10:43:56.768Z,7.55
2023-02-11T10:46:34.277Z,7.43
2023-02-11T10:49:07.293Z,7.59
2023-02-11T10:51:41.785Z,7.51
2023-02-11T10:54:21.217Z,7.57
2023-02-11T10:57:00.563Z,7.63
2023-02-11T10:59:38.320Z,7.50
2023-02-11T11:02:23.423Z,7.73
2023-02-11T11:04:58.197Z,7.79
2023-02-11T11:07:52.454Z,7.90
2023-02-11T11:10:32.856Z,7.71
2023-02-11T11:13:30.832Z,7.78
2023-02-11T11:16:23.155Z,7.89
2023-02-11T11:19:17.117Z,7.75
2023-02-11T11:21:52.751Z,7.81
2023-02-11T11:24:34.271Z,7.87
2023-02-11T11:27:07.700Z,8.06
2023-02-11T11:29:45.861Z,8.04
2023-02-11T11:32:23.355Z,8.29
2023-02-11T11:34:58.299Z,8.15
2023-02-11T11:37:31.763Z,8.08
2023-02-11T11:40:22.688Z,8.25
2023-02-11T11:43:08.544Z,8.29
2023-02-11T11:45:53.021Z,8.11
2023-02-11T11:48:31.237Z,8.21
2023-02-11T11:54:14.714Z,8.25
2023-02-11T11:57:19.126Z,8.44
2023-02-11T11:59:51.930Z,8.18
2023-02-11T12:02:48.720Z,8.46
2023-02-11T12:05:27.718Z,8.42
2023-02-11T12:08:10.663Z,8.49
2023-02-11T12:11:03.824Z,8.53
2023-02-11T12:13:49.904Z,8.51
2023-02-11T12:16:34.528Z,8.41
2023-02-11T12:22:31.567Z,8.54
2023-02-11T12:25:22.743Z,8.59
2023-02-11T12:28:06.827Z,8.72
2023-02-11T12:31:01.310Z,8.74
2023-02-11T12:33:51.044Z,8.77
2023-02-11T12:36:37.998Z,8.76
2023-02-11T12:39:27.322Z,9.12
2023-02-11T12:45:51.941Z,9.05
2023-02-11T12:48:36.194Z,9.29
2023-02-11T12:51:21.717Z,9.57
2023-02-11T12:54:18.422Z,9.38
2023-02-11T12:56:55.447Z,9.58
2023-02-11T12:59:39.340Z,9.24
2023-02-11T13:02:21.572Z,9.16
2023-02-11T13:04:58.189Z,9.30
2023-02-11T13:14:25.411Z,9.34
2023-02-11T13:17:32.358Z,9.46
2023-02-11T13:20:19.504Z,9.17
2023-02-11T13:23:00.274Z,9.18
2023-02-11T13:25:44.728Z,9.16
2023-02-11T13:28:42.480Z,9.34
2023-02-11T13:31:16.738Z,9.33
2023-02-11T13:33:50.450Z,9.29
2023-02-11T13:36:28.615Z,9.42
2023-02-11T13:39:39.865Z,9.32
2023-02-11T13:42:18.222Z,9.13
2023-02-11T13:44:52.257Z,9.20
2023-02-11T13:47:52.363Z,9.45
2023-02-11T13:50:27.357Z,9.38
2023-02-11T13:53:06.177Z,9.19
2023-02-11T13:55:43.137Z,9.42
2023-02-11T14:07:46.232Z,9.55
2023-02-11T14:10:52.405Z,9.69
2023-02-11T14:13:26.820Z,9.17
2023-02-11T14:16:08.945Z,9.47
2023-02-11T14:22:03.458Z,9.46
2023-02-11T14:27:57.023Z,9.66
2023-02-11T14:30:47.131Z,9.74
2023-02-11T14:36:44.474Z,9.82
2023-02-11T14:39:26.770Z,9.60
2023-02-11T14:42:03.572Z,9.69
2023-02-11T14:44:37.940Z,9.54
2023-02-11T14:47:18.488Z,9.49
2023-02-11T14:49:51.590Z,9.52
2023-02-11T14:55:57.475Z,9.73
2023-02-11T14:58:32.045Z,9.69
2023-02-11T15:01:23.494Z,9.55
2023-02-11T15:03:58.178Z,9.61
2023-02-11T15:06:33.375Z,9.77
2023-02-11T15:09:14.541Z,9.75
2023-02-11T15:11:49.881Z,9.62
2023-02-11T15:14:26.648Z,9.60
2023-02-11T15:17:05.346Z,9.52
2023-02-11T15:19:42.009Z,9.63
2023-02-11T15:22:20.235Z,9.63
2023-02-11T15:25:00.760Z,9.47
2023-02-11T15:27:40.357Z,9.40
2023-02-11T15:30:26.690Z,9.43
2023-02-11T15:33:05.716Z,9.42
2023-02-11T15:35:42.268Z,9.51
2023-02-11T15:38:15.373Z,9.37
2023-02-11T15:40:56.717Z,9.41
2023-02-11T15:43:42.974Z,9.21
2023-02-11T15:46:19.709Z,9.04
2023-02-11T15:48:56.586Z,9.15
2023-02-11T15:51:32.873Z,9.26
2023-02-11T15:54:08.815Z,9.26
2023-02-11T15:56:44.713Z,9.24
2023-02-11T15:59:21.752Z,9.04
2023-02-11T16:01:55.956Z,9.02
2023-02-11T16:04:30.216Z,9.18
2023-02-11T16:07:03.146Z,9.11
2023-02-11T16:09:37.632Z,9.07
2023-02-11T16:12:27.003Z,8.98
2023-02-11T16:15:03.768Z,9.06
2023-02-11T16:17:37.177Z,8.94
2023-02-11T16:20:20.437Z,9.01
2023-02-11T16:26:01.316Z,8.89
2023-02-11T16:28:34.769Z,8.97
2023-02-11T16:31:09.554Z,8.96
2023-02-11T16:33:42.203Z,8.93
2023-02-11T16:36:29.382Z,8.90
2023-02-11T16:39:04.037Z,8.82
2023-02-11T16:41:36.812Z,8.90
2023-02-11T16:44:09.791Z,8.85
2023-02-11T16:46:42.846Z,8.86
2023-02-11T16:49:19.197Z,8.73
2023-02-11T16:51:57.335Z,8.72
2023-02-11T16:54:32.266Z,8.76
2023-02-11T16:57:10.202Z,8.74
2023-02-11T16:59:43.246Z,8.72
2023-02-11T17:02:21.191Z,8.59
2023-02-11T17:04:59.179Z,8.61
2023-02-11T17:07:32.511Z,8.71
2023-02-11T17:10:15.139Z,8.67
2023-02-11T17:12:48.892Z,8.54
2023-02-11T17:15:21.723Z,8.58
2023-02-11T17:17:54.487Z,8.61
2023-02-11T17:20:27.781Z,8.63
2023-02-11T17:23:00.665Z,8.59
2023-02-11T17:25:37.152Z,8.57
2023-02-11T17:28:12.020Z,8.53
2023-02-11T17:30:44.811Z,8.59
2023-02-11T17:33:18.808Z,8.57
2023-02-11T17:35:52.015Z,8.61
2023-02-11T17:38:24.986Z,8.59
2023-02-11T17:41:00.373Z,8.60
2023-02-11T17:43:33.294Z,8.66
2023-02-11T17:46:10.670Z,8.60
2023-02-11T17:48:43.513Z,8.57
2023-02-11T17:51:24.100Z,8.52
2023-02-11T17:53:58.579Z,8.52
2023-02-11T17:56:35.801Z,8.55
2023-02-11T17:59:11.106Z,8.58
2023-02-11T18:01:44.627Z,8.55
2023-02-11T18:04:19.978Z,8.32
2023-02-11T18:06:53.464Z,8.49
2023-02-11T18:09:27.054Z,8.46
2023-02-11T18:12:01.182Z,8.46
2023-02-11T18:14:34.915Z,8.34
2023-02-11T18:17:07.865Z,8.39
2023-02-11T18:19:40.720Z,8.41
2023-02-11T18:22:14.312Z,8.41
2023-02-11T18:24:51.815Z,8.41
2023-02-11T18:27:25.898Z,8.34
2023-02-11T18:29:59.394Z,8.36
2023-02-11T18:32:32.858Z,8.39
2023-02-11T18:35:08.731Z,8.36
2023-02-11T18:37:42.452Z,8.38
2023-02-11T18:40:15.366Z,8.36
2023-02-11T18:42:49.530Z,8.37
2023-02-11T18:45:23.783Z,8.35
2023-02-11T18:47:56.663Z,8.31
2023-02-11T18:50:29.467Z,8.35
2023-02-11T18:53:02.247Z,8.24
2023-02-11T18:55:35.155Z,8.22
2023-02-11T18:58:09.440Z,8.30
2023-02-11T19:00:46.379Z,8.29
2023-02-11T19:03:20.323Z,8.31
2023-02-11T19:05:54.509Z,8.19
2023-02-11T19:08:27.477Z,8.30
2023-02-11T19:11:00.272Z,8.28
2023-02-11T19:13:34.720Z,8.18
2023-02-11T19:16:11.377Z,8.28
2023-02-11T19:18:44.580Z,8.21
2023-02-11T19:21:17.436Z,8.18
2023-02-11T19:23:50.361Z,8.25
2023-02-11T19:26:24.794Z,8.23
2023-02-11T19:28:59.725Z,8.07
2023-02-11T19:31:33.230Z,8.23
2023-02-11T19:34:07.309Z,8.15
2023-02-11T19:36:40.133Z,8.24
2023-02-11T19:39:13.454Z,8.23
2023-02-11T19:41:46.332Z,8.21
2023-02-11T19:44:20.494Z,8.22
2023-02-11T19:46:54.642Z,8.20
2023-02-11T19:49:27.823Z,8.20
2023-02-11T19:52:02.354Z,8.23
2023-02-11T19:54:35.192Z,8.21
2023-02-11T19:57:07.930Z,8.15
2023-02-11T20:09:28.893Z,8.16
2023-02-11T20:12:01.691Z,8.18
2023-02-11T20:14:34.479Z,8.14
2023-02-11T20:17:07.279Z,8.13
2023-02-11T20:19:40.047Z,8.16
2023-02-11T20:25:39.854Z,8.12
2023-02-11T20:28:13.893Z,7.97
2023-02-11T20:30:46.729Z,8.11
2023-02-11T20:33:21.978Z,8.15
2023-02-11T20:35:56.280Z,8.12
2023-02-11T20:38:29.301Z,8.14
2023-02-11T21:00:09.561Z,7.99
2023-02-11T21:02:42.365Z,7.70
2023-02-11T21:05:15.454Z,8.02
2023-02-11T21:07:48.292Z,7.98
2023-02-11T21:10:21.520Z,7.96
2023-02-11T21:12:54.620Z,7.86
2023-02-11T21:15:29.073Z,7.91
2023-02-11T21:18:02.236Z,7.98
2023-02-11T21:20:35.297Z,7.98
2023-02-11T21:23:08.248Z,7.98
2023-02-11T21:25:41.370Z,7.96
2023-02-11T21:28:14.811Z,7.96
2023-02-11T21:30:51.585Z,7.92
2023-02-11T21:33:25.916Z,7.95
2023-02-11T21:35:59.862Z,7.93
2023-02-11T21:38:34.693Z,7.94
2023-02-11T21:41:08.285Z,7.85
2023-02-11T21:43:41.109Z,7.80
2023-02-11T21:46:16.617Z,7.91
2023-02-11T21:48:50.906Z,7.89
2023-02-11T21:51:25.955Z,7.70
2023-02-11T21:54:01.005Z,7.87
2023-02-11T21:56:35.270Z,7.88
2023-02-11T21:59:08.089Z,7.91
2023-02-11T22:01:42.317Z,7.88
2023-02-11T22:04:15.420Z,7.83
2023-02-11T22:06:49.203Z,7.83
2023-02-11T22:09:21.984Z,7.85
2023-02-11T22:11:54.824Z,7.85
2023-02-11T22:14:27.911Z,7.80
2023-02-11T22:17:04.319Z,7.84
2023-02-11T22:19:37.439Z,7.84
2023-02-11T22:22:10.540Z,7.78
2023-02-11T22:24:45.382Z,7.79
2023-02-11T22:27:20.266Z,7.74
2023-02-11T22:29:53.334Z,7.77
2023-02-11T22:32:27.526Z,7.75
2023-02-11T22:35:01.464Z,7.78
2023-02-11T22:37:34.301Z,7.76
2023-02-11T22:40:08.449Z,7.76
2023-02-11T22:42:41.369Z,7.78
2023-02-11T22:45:14.286Z,7.63
2023-02-11T22:47:48.443Z,7.74
2023-02-11T22:50:21.228Z,7.77
2023-02-11T22:52:54.054Z,7.78
2023-02-11T22:55:27.407Z,7.74
2023-02-11T22:58:00.191Z,7.68
2023-02-11T23:00:37.756Z,7.62
2023-02-11T23:03:14.065Z,7.74
2023-02-11T23:05:46.847Z,7.72
2023-02-11T23:08:19.707Z,7.70
2023-02-11T23:10:52.551Z,7.65
2023-02-11T23:13:25.500Z,7.68
2023-02-11T23:15:58.377Z,7.55
2023-02-11T23:18:33.111Z,7.66
2023-02-11T23:21:10.145Z,7.62
2023-02-11T23:23:46.096Z,7.71
2023-02-11T23:26:19.386Z,7.69
2023-02-11T23:28:52.365Z,7.73
2023-02-11T23:31:29.025Z,7.68
2023-02-11T23:34:03.421Z,7.68
2023-02-11T23:36:37.198Z,7.71
2023-02-11T23:39:10.052Z,7.65
2023-02-11T23:41:42.857Z,7.60
2023-02-11T23:44:15.710Z,7.64
2023-02-11T23:46:48.515Z,7.59
2023-02-11T23:49:22.674Z,7.63
2023-02-11T23:51:57.594Z,7.49
2023-02-11T23:54:30.393Z,7.63
2023-02-11T23:57:03.209Z,7.59
2023-02-11T23:59:36.011Z,7.53
